sensor_id;sensor_type;location;lat;lon;timestamp;temperature;humidity
11132;DHT22;5620;53.570;9.718;2023-03-01T00:01:32;1.40;99.90
11132;DHT22;5620;53.570;9.718;2023-03-01T00:04:02;1.30;99.90
11132;DHT22;5620;53.570;9.718;2023-03-01T00:06:29;1.30;99.90
11132;DHT22;5620;53.570;9.718;2023-03-01T00:08:56;1.30;99.90
11132;DHT22;5620;53.570;9.718;2023-03-01T00:11:26;1.30;99.90
11132;DHT22;5620;53.570;9.718;2023-03-01T00:13:55;1.30;99.90
11132;DHT22;5620;53.570;9.718;2023-03-01T00:16:30;1.30;99.90
11132;DHT22;5620;53.570;9.718;2023-03-01T00:18:57;1.40;99.90
11132;DHT22;5620;53.570;9.718;2023-03-01T00:21:23;1.40;99.90
11132;DHT22;5620;53.570;9.718;2023-03-01T00:23:52;1.40;99.90
11132;DHT22;5620;53.570;9.718;2023-03-01T00:26:20;1.40;99.90
11132;DHT22;5620;53.570;9.718;2023-03-01T00:28:49;1.40;99.90
11132;DHT22;5620;53.570;9.718;2023-03-01T00:31:18;1.30;99.90
11132;DHT22;5620;53.570;9.718;2023-03-01T00:33:44;1.30;99.90
11132;DHT22;5620;53.570;9.718;2023-03-01T00:36:13;1.30;99.90
11132;DHT22;5620;53.570;9.718;2023-03-01T00:38:44;1.30;99.90
11132;DHT22;5620;53.570;9.718;2023-03-01T00:41:16;1.20;99.90
11132;DHT22;5620;53.570;9.718;2023-03-01T00:43:42;1.20;99.90
11132;DHT22;5620;53.570;9.718;2023-03-01T00:46:15;1.10;99.90
11132;DHT22;5620;53.570;9.718;2023-03-01T00:48:44;1.20;99.90
11132;DHT22;5620;53.570;9.718;2023-03-01T00:51:14;1.20;99.90
11132;DHT22;5620;53.570;9.718;2023-03-01T00:53:41;1.10;99.90
11132;DHT22;5620;53.570;9.718;2023-03-01T00:56:11;1.10;99.90
11132;DHT22;5620;53.570;9.718;2023-03-01T00:58:38;1.10;99.90
11132;DHT22;5620;53.570;9.718;2023-03-01T01:01:23;1.00;99.90
11132;DHT22;5620;53.570;9.718;2023-03-01T01:04:09;1.10;99.90
11132;DHT22;5620;53.570;9.718;2023-03-01T01:06:43;1.10;99.90
11132;DHT22;5620;53.570;9.718;2023-03-01T01:09:14;1.10;99.90
11132;DHT22;5620;53.570;9.718;2023-03-01T01:11:41;1.10;99.90
11132;DHT22;5620;53.570;9.718;2023-03-01T01:14:09;1.00;99.90
11132;DHT22;5620;53.570;9.718;2023-03-01T01:16:36;1.00;99.90
11132;DHT22;5620;53.570;9.718;2023-03-01T01:19:03;1.00;99.90
11132;DHT22;5620;53.570;9.718;2023-03-01T01:21:31;1.10;99.90
11132;DHT22;5620;53.570;9.718;2023-03-01T01:23:58;1.00;99.90
11132;DHT22;5620;53.570;9.718;2023-03-01T01:26:32;1.00;99.90
11132;DHT22;5620;53.570;9.718;2023-03-01T01:29:02;1.00;99.90
11132;DHT22;5620;53.570;9.718;2023-03-01T01:31:32;1.00;99.90
11132;DHT22;5620;53.570;9.718;2023-03-01T01:34:05;1.00;99.90
11132;DHT22;5620;53.570;9.718;2023-03-01T01:36:33;1.00;1.00
11132;DHT22;5620;53.570;9.718;2023-03-01T01:39:00;1.00;1.00
11132;DHT22;5620;53.570;9.718;2023-03-01T01:41:29;0.90;1.00
11132;DHT22;5620;53.570;9.718;2023-03-01T01:44:21;0.90;1.00
11132;DHT22;5620;53.570;9.718;2023-03-01T01:49:46;0.90;1.00
11132;DHT22;5620;53.570;9.718;2023-03-01T01:52:29;0.90;1.00
11132;DHT22;5620;53.570;9.718;2023-03-01T01:55:07;0.90;1.00
11132;DHT22;5620;53.570;9.718;2023-03-01T01:57:41;0.90;1.00
11132;DHT22;5620;53.570;9.718;2023-03-01T02:03:02;0.90;1.00
11132;DHT22;5620;53.570;9.718;2023-03-01T02:05:50;0.90;1.00
11132;DHT22;5620;53.570;9.718;2023-03-01T02:08:20;0.90;1.00
11132;DHT22;5620;53.570;9.718;2023-03-01T02:10:50;0.90;1.00
11132;DHT22;5620;53.570;9.718;2023-03-01T02:13:21;0.80;1.00
11132;DHT22;5620;53.570;9.718;2023-03-01T02:15:48;0.80;1.00
11132;DHT22;5620;53.570;9.718;2023-03-01T02:18:20;0.80;1.00
11132;DHT22;5620;53.570;9.718;2023-03-01T02:23:41;0.80;1.00
11132;DHT22;5620;53.570;9.718;2023-03-01T02:26:36;0.80;1.00
11132;DHT22;5620;53.570;9.718;2023-03-01T02:29:05;0.80;1.00
11132;DHT22;5620;53.570;9.718;2023-03-01T02:31:35;0.80;1.00
11132;DHT22;5620;53.570;9.718;2023-03-01T02:34:03;0.80;1.00
11132;DHT22;5620;53.570;9.718;2023-03-01T02:36:56;0.70;1.00
11132;DHT22;5620;53.570;9.718;2023-03-01T02:39:56;0.70;1.00
11132;DHT22;5620;53.570;9.718;2023-03-01T02:42:40;0.70;1.00
11132;DHT22;5620;53.570;9.718;2023-03-01T02:45:13;0.70;1.00
11132;DHT22;5620;53.570;9.718;2023-03-01T02:47:40;0.70;1.00
11132;DHT22;5620;53.570;9.718;2023-03-01T02:55:58;0.60;1.00
11132;DHT22;5620;53.570;9.718;2023-03-01T02:58:25;0.60;1.00
11132;DHT22;5620;53.570;9.718;2023-03-01T03:00:52;0.50;1.00
11132;DHT22;5620;53.570;9.718;2023-03-01T03:03:21;0.50;1.00
11132;DHT22;5620;53.570;9.718;2023-03-01T03:05:48;0.50;1.00
11132;DHT22;5620;53.570;9.718;2023-03-01T03:08:15;0.50;1.00
11132;DHT22;5620;53.570;9.718;2023-03-01T03:10:42;0.70;1.00
11132;DHT22;5620;53.570;9.718;2023-03-01T03:13:13;0.50;1.00
11132;DHT22;5620;53.570;9.718;2023-03-01T03:15:41;0.50;1.00
11132;DHT22;5620;53.570;9.718;2023-03-01T03:18:11;0.40;1.00
11132;DHT22;5620;53.570;9.718;2023-03-01T03:20:39;0.50;1.00
11132;DHT22;5620;53.570;9.718;2023-03-01T03:23:08;0.50;1.00
11132;DHT22;5620;53.570;9.718;2023-03-01T03:25:35;0.60;1.00
11132;DHT22;5620;53.570;9.718;2023-03-01T03:28:03;0.60;1.00
11132;DHT22;5620;53.570;9.718;2023-03-01T03:30:37;0.60;1.00
11132;DHT22;5620;53.570;9.718;2023-03-01T03:33:06;0.70;1.00
11132;DHT22;5620;53.570;9.718;2023-03-01T03:35:38;0.80;1.00
11132;DHT22;5620;53.570;9.718;2023-03-01T03:38:10;0.90;1.00
11132;DHT22;5620;53.570;9.718;2023-03-01T03:40:38;1.00;1.00
11132;DHT22;5620;53.570;9.718;2023-03-01T03:43:08;1.20;1.00
11132;DHT22;5620;53.570;9.718;2023-03-01T03:45:36;1.20;1.00
11132;DHT22;5620;53.570;9.718;2023-03-01T03:48:06;1.30;1.00
11132;DHT22;5620;53.570;9.718;2023-03-01T03:50:33;1.30;1.00
11132;DHT22;5620;53.570;9.718;2023-03-01T03:53:08;1.40;1.00
11132;DHT22;5620;53.570;9.718;2023-03-01T03:55:39;1.40;1.00
11132;DHT22;5620;53.570;9.718;2023-03-01T03:58:08;1.40;1.00
11132;DHT22;5620;53.570;9.718;2023-03-01T04:00:41;1.40;1.00
11132;DHT22;5620;53.570;9.718;2023-03-01T04:03:11;1.50;1.00
11132;DHT22;5620;53.570;9.718;2023-03-01T04:05:38;1.50;1.00
11132;DHT22;5620;53.570;9.718;2023-03-01T04:08:06;1.60;1.00
11132;DHT22;5620;53.570;9.718;2023-03-01T04:10:37;1.70;1.00
11132;DHT22;5620;53.570;9.718;2023-03-01T04:13:05;1.80;1.00
11132;DHT22;5620;53.570;9.718;2023-03-01T04:15:32;1.80;1.00
11132;DHT22;5620;53.570;9.718;2023-03-01T04:17:59;2.00;1.00
11132;DHT22;5620;53.570;9.718;2023-03-01T04:20:27;2.10;1.00
11132;DHT22;5620;53.570;9.718;2023-03-01T04:23:12;2.20;1.00
11132;DHT22;5620;53.570;9.718;2023-03-01T04:25:53;2.30;1.00
11132;DHT22;5620;53.570;9.718;2023-03-01T04:28:29;2.40;1.00
11132;DHT22;5620;53.570;9.718;2023-03-01T04:30:56;2.50;1.00
11132;DHT22;5620;53.570;9.718;2023-03-01T04:33:24;2.60;1.00
11132;DHT22;5620;53.570;9.718;2023-03-01T04:35:52;2.70;1.00
11132;DHT22;5620;53.570;9.718;2023-03-01T04:38:22;2.70;1.00
11132;DHT22;5620;53.570;9.718;2023-03-01T04:40:50;2.70;1.00
11132;DHT22;5620;53.570;9.718;2023-03-01T04:43:16;2.80;1.00
11132;DHT22;5620;53.570;9.718;2023-03-01T04:45:43;2.80;1.00
11132;DHT22;5620;53.570;9.718;2023-03-01T04:48:10;2.90;1.00
11132;DHT22;5620;53.570;9.718;2023-03-01T04:50:36;3.00;1.00
11132;DHT22;5620;53.570;9.718;2023-03-01T04:53:04;3.00;1.00
11132;DHT22;5620;53.570;9.718;2023-03-01T04:55:31;3.10;1.00
11132;DHT22;5620;53.570;9.718;2023-03-01T04:57:57;3.20;1.00
11132;DHT22;5620;53.570;9.718;2023-03-01T05:00:24;3.20;1.00
11132;DHT22;5620;53.570;9.718;2023-03-01T05:02:56;3.30;1.00
11132;DHT22;5620;53.570;9.718;2023-03-01T05:05:40;3.30;1.00
11132;DHT22;5620;53.570;9.718;2023-03-01T05:08:08;3.40;1.00
11132;DHT22;5620;53.570;9.718;2023-03-01T05:10:37;3.40;1.00
11132;DHT22;5620;53.570;9.718;2023-03-01T05:13:05;3.50;1.00
11132;DHT22;5620;53.570;9.718;2023-03-01T05:15:32;3.50;1.00
11132;DHT22;5620;53.570;9.718;2023-03-01T05:18:00;3.60;1.00
11132;DHT22;5620;53.570;9.718;2023-03-01T05:20:28;3.70;1.00
11132;DHT22;5620;53.570;9.718;2023-03-01T05:22:58;3.70;1.00
11132;DHT22;5620;53.570;9.718;2023-03-01T05:25:29;3.80;1.00
11132;DHT22;5620;53.570;9.718;2023-03-01T05:27:57;3.80;1.00
11132;DHT22;5620;53.570;9.718;2023-03-01T05:30:24;3.70;1.00
11132;DHT22;5620;53.570;9.718;2023-03-01T05:32:50;3.70;1.00
11132;DHT22;5620;53.570;9.718;2023-03-01T05:35:17;3.80;1.00
11132;DHT22;5620;53.570;9.718;2023-03-01T05:37:46;3.80;1.00
11132;DHT22;5620;53.570;9.718;2023-03-01T05:40:18;3.90;1.00
11132;DHT22;5620;53.570;9.718;2023-03-01T05:42:52;3.90;1.00
11132;DHT22;5620;53.570;9.718;2023-03-01T05:45:19;3.90;1.00
11132;DHT22;5620;53.570;9.718;2023-03-01T05:47:47;4.00;1.00
11132;DHT22;5620;53.570;9.718;2023-03-01T05:50:24;4.00;1.00
11132;DHT22;5620;53.570;9.718;2023-03-01T05:52:58;4.00;1.00
11132;DHT22;5620;53.570;9.718;2023-03-01T05:55:25;4.10;1.00
11132;DHT22;5620;53.570;9.718;2023-03-01T05:57:52;4.00;1.00
11132;DHT22;5620;53.570;9.718;2023-03-01T06:00:20;4.00;1.00
11132;DHT22;5620;53.570;9.718;2023-03-01T06:02:46;3.90;1.00
11132;DHT22;5620;53.570;9.718;2023-03-01T06:05:14;3.90;1.00
11132;DHT22;5620;53.570;9.718;2023-03-01T06:07:41;3.90;1.00
11132;DHT22;5620;53.570;9.718;2023-03-01T06:10:09;4.00;1.00
11132;DHT22;5620;53.570;9.718;2023-03-01T06:12:37;4.00;1.00
11132;DHT22;5620;53.570;9.718;2023-03-01T06:15:05;4.00;1.00
11132;DHT22;5620;53.570;9.718;2023-03-01T06:17:35;4.00;1.00
11132;DHT22;5620;53.570;9.718;2023-03-01T06:20:06;4.00;1.00
11132;DHT22;5620;53.570;9.718;2023-03-01T06:22:33;3.90;1.00
11132;DHT22;5620;53.570;9.718;2023-03-01T06:24:59;3.80;1.00
11132;DHT22;5620;53.570;9.718;2023-03-01T06:27:25;3.80;1.00
11132;DHT22;5620;53.570;9.718;2023-03-01T06:29:53;3.80;1.00
11132;DHT22;5620;53.570;9.718;2023-03-01T06:32:20;3.80;1.00
11132;DHT22;5620;53.570;9.718;2023-03-01T06:34:47;3.90;1.00
11132;DHT22;5620;53.570;9.718;2023-03-01T06:37:14;3.90;1.00
11132;DHT22;5620;53.570;9.718;2023-03-01T06:39:40;4.00;1.00
11132;DHT22;5620;53.570;9.718;2023-03-01T06:42:06;4.00;1.00
11132;DHT22;5620;53.570;9.718;2023-03-01T06:44:35;4.00;1.00
11132;DHT22;5620;53.570;9.718;2023-03-01T06:47:24;4.10;1.00
11132;DHT22;5620;53.570;9.718;2023-03-01T06:49:49;4.20;1.00
11132;DHT22;5620;53.570;9.718;2023-03-01T06:52:17;4.20;1.00
11132;DHT22;5620;53.570;9.718;2023-03-01T06:54:45;4.30;1.00
11132;DHT22;5620;53.570;9.718;2023-03-01T06:57:11;4.30;1.00
11132;DHT22;5620;53.570;9.718;2023-03-01T06:59:47;4.40;1.00
11132;DHT22;5620;53.570;9.718;2023-03-01T07:02:15;4.50;1.00
11132;DHT22;5620;53.570;9.718;2023-03-01T07:04:43;4.60;1.00
11132;DHT22;5620;53.570;9.718;2023-03-01T07:07:10;4.70;1.00
11132;DHT22;5620;53.570;9.718;2023-03-01T07:09:37;4.70;1.00
11132;DHT22;5620;53.570;9.718;2023-03-01T07:12:04;4.80;1.00
11132;DHT22;5620;53.570;9.718;2023-03-01T07:14:32;4.90;1.00
11132;DHT22;5620;53.570;9.718;2023-03-01T07:17:01;5.10;99.90
11132;DHT22;5620;53.570;9.718;2023-03-01T07:19:29;5.20;99.90
11132;DHT22;5620;53.570;9.718;2023-03-01T07:21:55;5.30;99.90
11132;DHT22;5620;53.570;9.718;2023-03-01T07:24:24;5.50;99.90
11132;DHT22;5620;53.570;9.718;2023-03-01T07:26:51;5.60;99.90
11132;DHT22;5620;53.570;9.718;2023-03-01T07:29:18;5.70;99.90
11132;DHT22;5620;53.570;9.718;2023-03-01T07:31:45;5.80;99.90
11132;DHT22;5620;53.570;9.718;2023-03-01T07:34:11;5.90;99.90
11132;DHT22;5620;53.570;9.718;2023-03-01T07:36:39;5.90;99.90
11132;DHT22;5620;53.570;9.718;2023-03-01T07:39:06;5.90;99.90
11132;DHT22;5620;53.570;9.718;2023-03-01T07:41:34;5.90;99.90
11132;DHT22;5620;53.570;9.718;2023-03-01T07:44:01;5.80;99.90
11132;DHT22;5620;53.570;9.718;2023-03-01T07:46:27;5.70;99.90
11132;DHT22;5620;53.570;9.718;2023-03-01T07:48:55;5.60;99.90
11132;DHT22;5620;53.570;9.718;2023-03-01T07:51:22;5.50;99.90
11132;DHT22;5620;53.570;9.718;2023-03-01T07:53:50;5.50;99.90
11132;DHT22;5620;53.570;9.718;2023-03-01T07:56:18;5.40;99.90
11132;DHT22;5620;53.570;9.718;2023-03-01T07:58:45;5.40;99.90
11132;DHT22;5620;53.570;9.718;2023-03-01T08:01:14;5.30;99.90
11132;DHT22;5620;53.570;9.718;2023-03-01T08:03:42;5.40;99.90
11132;DHT22;5620;53.570;9.718;2023-03-01T08:06:10;5.40;99.90
11132;DHT22;5620;53.570;9.718;2023-03-01T08:08:39;5.50;99.90
11132;DHT22;5620;53.570;9.718;2023-03-01T08:11:07;5.50;99.90
11132;DHT22;5620;53.570;9.718;2023-03-01T08:13:36;5.60;99.90
11132;DHT22;5620;53.570;9.718;2023-03-01T08:16:09;5.50;99.90
11132;DHT22;5620;53.570;9.718;2023-03-01T08:18:42;5.40;99.90
11132;DHT22;5620;53.570;9.718;2023-03-01T08:21:12;5.40;99.90
11132;DHT22;5620;53.570;9.718;2023-03-01T08:23:40;5.30;99.90
11132;DHT22;5620;53.570;9.718;2023-03-01T08:28:56;5.30;99.90
11132;DHT22;5620;53.570;9.718;2023-03-01T08:31:32;5.30;99.90
11132;DHT22;5620;53.570;9.718;2023-03-01T08:34:05;5.30;99.90
11132;DHT22;5620;53.570;9.718;2023-03-01T08:36:37;5.60;99.90
11132;DHT22;5620;53.570;9.718;2023-03-01T08:39:03;5.90;99.90
11132;DHT22;5620;53.570;9.718;2023-03-01T08:41:29;6.20;99.90
11132;DHT22;5620;53.570;9.718;2023-03-01T08:43:56;6.10;99.90
11132;DHT22;5620;53.570;9.718;2023-03-01T08:46:30;6.10;99.90
11132;DHT22;5620;53.570;9.718;2023-03-01T08:49:03;6.20;99.90
11132;DHT22;5620;53.570;9.718;2023-03-01T08:51:28;6.10;99.90
11132;DHT22;5620;53.570;9.718;2023-03-01T08:53:56;6.30;99.90
11132;DHT22;5620;53.570;9.718;2023-03-01T08:56:22;6.50;99.90
11132;DHT22;5620;53.570;9.718;2023-03-01T08:58:50;6.80;99.90
11132;DHT22;5620;53.570;9.718;2023-03-01T09:01:18;7.10;99.90
11132;DHT22;5620;53.570;9.718;2023-03-01T09:03:45;7.40;99.90
11132;DHT22;5620;53.570;9.718;2023-03-01T09:06:12;7.40;99.90
11132;DHT22;5620;53.570;9.718;2023-03-01T09:08:41;7.30;99.90
11132;DHT22;5620;53.570;9.718;2023-03-01T09:11:10;7.40;99.90
11132;DHT22;5620;53.570;9.718;2023-03-01T09:13:37;7.40;99.90
11132;DHT22;5620;53.570;9.718;2023-03-01T09:16:06;7.70;99.90
11132;DHT22;5620;53.570;9.718;2023-03-01T09:18:36;7.90;99.90
11132;DHT22;5620;53.570;9.718;2023-03-01T09:21:22;8.00;99.90
11132;DHT22;5620;53.570;9.718;2023-03-01T09:23:50;8.20;99.90
11132;DHT22;5620;53.570;9.718;2023-03-01T09:26:22;8.50;99.90
11132;DHT22;5620;53.570;9.718;2023-03-01T09:28:52;8.60;99.90
11132;DHT22;5620;53.570;9.718;2023-03-01T09:31:24;8.70;99.90
11132;DHT22;5620;53.570;9.718;2023-03-01T09:33:53;8.90;99.90
11132;DHT22;5620;53.570;9.718;2023-03-01T09:36:24;9.10;99.90
11132;DHT22;5620;53.570;9.718;2023-03-01T09:38:52;9.30;99.90
11132;DHT22;5620;53.570;9.718;2023-03-01T09:47:20;9.90;99.90
11132;DHT22;5620;53.570;9.718;2023-03-01T09:50:14;10.10;99.90
11132;DHT22;5620;53.570;9.718;2023-03-01T09:52:50;10.20;99.90
11132;DHT22;5620;53.570;9.718;2023-03-01T09:59:04;10.70;99.90
11132;DHT22;5620;53.570;9.718;2023-03-01T10:04:51;11.00;99.90
11132;DHT22;5620;53.570;9.718;2023-03-01T10:10:08;11.00;99.90
11132;DHT22;5620;53.570;9.718;2023-03-01T10:12:41;10.70;99.90
11132;DHT22;5620;53.570;9.718;2023-03-01T10:15:34;10.40;99.90
11132;DHT22;5620;53.570;9.718;2023-03-01T10:18:18;9.90;99.90
11132;DHT22;5620;53.570;9.718;2023-03-01T10:21:15;9.60;99.90
11132;DHT22;5620;53.570;9.718;2023-03-01T10:23:42;9.60;99.90
11132;DHT22;5620;53.570;9.718;2023-03-01T10:29:12;9.60;99.90
11132;DHT22;5620;53.570;9.718;2023-03-01T10:31:47;9.60;99.90
11132;DHT22;5620;53.570;9.718;2023-03-01T10:34:18;9.60;99.90
11132;DHT22;5620;53.570;9.718;2023-03-01T10:36:48;9.80;99.90
11132;DHT22;5620;53.570;9.718;2023-03-01T10:39:33;10.10;99.90
11132;DHT22;5620;53.570;9.718;2023-03-01T10:42:05;10.50;99.90
11132;DHT22;5620;53.570;9.718;2023-03-01T10:44:46;10.90;99.90
11132;DHT22;5620;53.570;9.718;2023-03-01T10:50:02;11.10;99.90
11132;DHT22;5620;53.570;9.718;2023-03-01T10:52:40;11.40;99.90
11132;DHT22;5620;53.570;9.718;2023-03-01T10:55:32;11.60;99.90
11132;DHT22;5620;53.570;9.718;2023-03-01T10:58:19;11.60;99.90
11132;DHT22;5620;53.570;9.718;2023-03-01T11:01:30;11.60;99.90
11132;DHT22;5620;53.570;9.718;2023-03-01T11:04:12;11.70;99.90
11132;DHT22;5620;53.570;9.718;2023-03-01T11:06:41;11.90;99.90
11132;DHT22;5620;53.570;9.718;2023-03-01T11:09:25;12.30;99.90
11132;DHT22;5620;53.570;9.718;2023-03-01T11:12:01;12.70;99.90
11132;DHT22;5620;53.570;9.718;2023-03-01T11:14:36;12.80;99.90
11132;DHT22;5620;53.570;9.718;2023-03-01T11:17:28;13.00;99.90
11132;DHT22;5620;53.570;9.718;2023-03-01T11:22:59;13.90;99.90
11132;DHT22;5620;53.570;9.718;2023-03-01T11:25:35;14.70;99.90
11132;DHT22;5620;53.570;9.718;2023-03-01T11:28:06;15.30;99.90
11132;DHT22;5620;53.570;9.718;2023-03-01T11:31:02;16.00;99.90
11132;DHT22;5620;53.570;9.718;2023-03-01T11:33:55;17.20;93.60
11132;DHT22;5620;53.570;9.718;2023-03-01T11:42:12;21.00;7.40
11132;DHT22;5620;53.570;9.718;2023-03-01T11:45:01;21.50;1.00
11132;DHT22;5620;53.570;9.718;2023-03-01T11:47:57;22.40;1.00
11132;DHT22;5620;53.570;9.718;2023-03-01T11:50:48;22.80;1.00
11132;DHT22;5620;53.570;9.718;2023-03-01T11:56:28;22.80;1.00
11132;DHT22;5620;53.570;9.718;2023-03-01T11:59:49;22.80;1.00
11132;DHT22;5620;53.570;9.718;2023-03-01T12:02:46;23.30;1.00
11132;DHT22;5620;53.570;9.718;2023-03-01T12:08:27;24.90;1.00
11132;DHT22;5620;53.570;9.718;2023-03-01T12:14:08;26.40;1.00
11132;DHT22;5620;53.570;9.718;2023-03-01T12:16:58;26.80;1.00
11132;DHT22;5620;53.570;9.718;2023-03-01T12:20:05;27.00;1.00
11132;DHT22;5620;53.570;9.718;2023-03-01T12:23:00;27.50;1.00
11132;DHT22;5620;53.570;9.718;2023-03-01T12:26:13;27.40;1.00
11132;DHT22;5620;53.570;9.718;2023-03-01T12:41:02;25.40;1.00
11132;DHT22;5620;53.570;9.718;2023-03-01T12:43:56;22.90;1.00
11132;DHT22;5620;53.570;9.718;2023-03-01T12:55:37;21.30;1.00
11132;DHT22;5620;53.570;9.718;2023-03-01T12:58:41;23.50;1.00
11132;DHT22;5620;53.570;9.718;2023-03-01T13:10:55;28.60;1.00
11132;DHT22;5620;53.570;9.718;2023-03-01T13:13:37;28.80;1.00
11132;DHT22;5620;53.570;9.718;2023-03-01T13:16:40;29.20;1.00
11132;DHT22;5620;53.570;9.718;2023-03-01T13:19:18;29.60;1.00
11132;DHT22;5620;53.570;9.718;2023-03-01T13:21:58;30.30;1.00
11132;DHT22;5620;53.570;9.718;2023-03-01T13:24:40;30.90;1.00
11132;DHT22;5620;53.570;9.718;2023-03-01T13:27:22;31.20;1.00
11132;DHT22;5620;53.570;9.718;2023-03-01T13:29:58;31.30;1.00
11132;DHT22;5620;53.570;9.718;2023-03-01T13:32:35;31.40;1.00
11132;DHT22;5620;53.570;9.718;2023-03-01T13:35:45;31.30;1.00
11132;DHT22;5620;53.570;9.718;2023-03-01T13:41:17;30.60;1.00
11132;DHT22;5620;53.570;9.718;2023-03-01T13:44:29;30.70;1.00
11132;DHT22;5620;53.570;9.718;2023-03-01T13:47:18;30.80;1.00
11132;DHT22;5620;53.570;9.718;2023-03-01T13:50:03;31.10;1.00
11132;DHT22;5620;53.570;9.718;2023-03-01T13:55:44;31.10;1.00
11132;DHT22;5620;53.570;9.718;2023-03-01T13:58:48;30.70;1.00
11132;DHT22;5620;53.570;9.718;2023-03-01T14:01:56;30.20;1.00
11132;DHT22;5620;53.570;9.718;2023-03-01T14:04:26;30.40;1.00
11132;DHT22;5620;53.570;9.718;2023-03-01T14:07:08;30.40;1.00
11132;DHT22;5620;53.570;9.718;2023-03-01T14:09:41;30.20;1.00
11132;DHT22;5620;53.570;9.718;2023-03-01T14:15:39;29.90;1.00
11132;DHT22;5620;53.570;9.718;2023-03-01T14:18:18;30.10;1.00
11132;DHT22;5620;53.570;9.718;2023-03-01T14:20:48;30.30;1.00
11132;DHT22;5620;53.570;9.718;2023-03-01T14:23:22;30.50;1.00
11132;DHT22;5620;53.570;9.718;2023-03-01T14:26:07;30.80;1.00
11132;DHT22;5620;53.570;9.718;2023-03-01T14:28:34;30.20;1.00
11132;DHT22;5620;53.570;9.718;2023-03-01T14:31:29;29.10;1.00
11132;DHT22;5620;53.570;9.718;2023-03-01T14:33:55;27.80;1.00
11132;DHT22;5620;53.570;9.718;2023-03-01T14:36:30;26.70;1.00
11132;DHT22;5620;53.570;9.718;2023-03-01T14:38:56;26.10;1.00
11132;DHT22;5620;53.570;9.718;2023-03-01T14:41:27;25.50;1.00
11132;DHT22;5620;53.570;9.718;2023-03-01T14:44:06;24.80;1.00
11132;DHT22;5620;53.570;9.718;2023-03-01T14:46:40;24.00;1.00
11132;DHT22;5620;53.570;9.718;2023-03-01T14:49:29;23.50;1.00
11132;DHT22;5620;53.570;9.718;2023-03-01T14:52:17;23.00;1.00
11132;DHT22;5620;53.570;9.718;2023-03-01T14:54:50;22.50;1.00
11132;DHT22;5620;53.570;9.718;2023-03-01T14:57:27;22.30;1.00
11132;DHT22;5620;53.570;9.718;2023-03-01T14:59:55;22.40;1.00
11132;DHT22;5620;53.570;9.718;2023-03-01T15:02:28;22.80;1.00
11132;DHT22;5620;53.570;9.718;2023-03-01T15:05:02;22.80;1.00
11132;DHT22;5620;53.570;9.718;2023-03-01T15:07:37;22.70;1.00
11132;DHT22;5620;53.570;9.718;2023-03-01T15:10:12;23.10;1.00
11132;DHT22;5620;53.570;9.718;2023-03-01T15:12:42;23.90;1.00
11132;DHT22;5620;53.570;9.718;2023-03-01T15:15:34;24.50;1.00
11132;DHT22;5620;53.570;9.718;2023-03-01T15:18:26;25.40;1.00
11132;DHT22;5620;53.570;9.718;2023-03-01T15:20:54;26.00;1.00
11132;DHT22;5620;53.570;9.718;2023-03-01T15:23:29;25.60;1.00
11132;DHT22;5620;53.570;9.718;2023-03-01T15:26:01;24.40;1.00
11132;DHT22;5620;53.570;9.718;2023-03-01T15:28:30;22.60;1.00
11132;DHT22;5620;53.570;9.718;2023-03-01T15:33:45;18.50;1.00
11132;DHT22;5620;53.570;9.718;2023-03-01T15:36:36;16.90;1.00
11132;DHT22;5620;53.570;9.718;2023-03-01T15:39:29;15.50;1.00
11132;DHT22;5620;53.570;9.718;2023-03-01T15:42:00;14.40;1.00
11132;DHT22;5620;53.570;9.718;2023-03-01T15:44:28;13.50;5.40
11132;DHT22;5620;53.570;9.718;2023-03-01T15:46:56;12.90;11.20
11132;DHT22;5620;53.570;9.718;2023-03-01T15:49:42;12.30;15.60
11132;DHT22;5620;53.570;9.718;2023-03-01T15:52:28;11.70;20.80
11132;DHT22;5620;53.570;9.718;2023-03-01T15:55:03;11.20;25.40
11132;DHT22;5620;53.570;9.718;2023-03-01T15:57:31;10.80;27.50
11132;DHT22;5620;53.570;9.718;2023-03-01T15:59:56;10.50;30.70
11132;DHT22;5620;53.570;9.718;2023-03-01T16:02:25;10.10;34.20
11132;DHT22;5620;53.570;9.718;2023-03-01T16:04:55;9.80;38.10
11132;DHT22;5620;53.570;9.718;2023-03-01T16:07:20;9.50;40.80
11132;DHT22;5620;53.570;9.718;2023-03-01T16:09:47;9.20;43.60
11132;DHT22;5620;53.570;9.718;2023-03-01T16:12:15;9.00;45.70
11132;DHT22;5620;53.570;9.718;2023-03-01T16:14:41;8.80;47.50
11132;DHT22;5620;53.570;9.718;2023-03-01T16:17:08;8.60;48.80
11132;DHT22;5620;53.570;9.718;2023-03-01T16:19:40;8.50;50.50
11132;DHT22;5620;53.570;9.718;2023-03-01T16:22:05;8.30;53.10
11132;DHT22;5620;53.570;9.718;2023-03-01T16:24:32;8.10;53.50
11132;DHT22;5620;53.570;9.718;2023-03-01T16:26:58;8.00;54.90
11132;DHT22;5620;53.570;9.718;2023-03-01T16:29:26;7.80;56.40
11132;DHT22;5620;53.570;9.718;2023-03-01T16:31:54;7.70;56.90
11132;DHT22;5620;53.570;9.718;2023-03-01T16:34:21;7.60;58.00
11132;DHT22;5620;53.570;9.718;2023-03-01T16:36:48;7.40;59.10
11132;DHT22;5620;53.570;9.718;2023-03-01T16:39:15;7.30;60.30
11132;DHT22;5620;53.570;9.718;2023-03-01T16:41:43;7.20;61.10
11132;DHT22;5620;53.570;9.718;2023-03-01T16:44:10;7.00;61.50
11132;DHT22;5620;53.570;9.718;2023-03-01T16:46:37;6.90;62.30
11132;DHT22;5620;53.570;9.718;2023-03-01T16:49:04;6.70;63.50
11132;DHT22;5620;53.570;9.718;2023-03-01T16:51:30;6.60;64.30
11132;DHT22;5620;53.570;9.718;2023-03-01T16:53:56;6.40;65.20
11132;DHT22;5620;53.570;9.718;2023-03-01T16:56:24;6.30;66.20
11132;DHT22;5620;53.570;9.718;2023-03-01T16:58:51;6.10;66.60
11132;DHT22;5620;53.570;9.718;2023-03-01T17:01:19;5.90;67.20
11132;DHT22;5620;53.570;9.718;2023-03-01T17:03:47;5.90;67.30
11132;DHT22;5620;53.570;9.718;2023-03-01T17:06:20;5.80;68.00
11132;DHT22;5620;53.570;9.718;2023-03-01T17:08:47;5.70;68.50
11132;DHT22;5620;53.570;9.718;2023-03-01T17:11:18;5.50;69.90
11132;DHT22;5620;53.570;9.718;2023-03-01T17:13:45;5.30;70.40
11132;DHT22;5620;53.570;9.718;2023-03-01T17:16:17;5.20;71.00
11132;DHT22;5620;53.570;9.718;2023-03-01T17:18:43;5.10;71.40
11132;DHT22;5620;53.570;9.718;2023-03-01T17:21:15;5.00;72.50
11132;DHT22;5620;53.570;9.718;2023-03-01T17:23:45;4.90;72.50
11132;DHT22;5620;53.570;9.718;2023-03-01T17:26:12;4.80;72.50
11132;DHT22;5620;53.570;9.718;2023-03-01T17:28:38;4.70;73.40
11132;DHT22;5620;53.570;9.718;2023-03-01T17:31:06;4.60;73.80
11132;DHT22;5620;53.570;9.718;2023-03-01T17:33:33;4.60;74.20
11132;DHT22;5620;53.570;9.718;2023-03-01T17:36:01;4.50;74.60
11132;DHT22;5620;53.570;9.718;2023-03-01T17:38:27;4.40;74.90
11132;DHT22;5620;53.570;9.718;2023-03-01T17:40:53;4.30;75.90
11132;DHT22;5620;53.570;9.718;2023-03-01T17:43:19;4.30;76.40
11132;DHT22;5620;53.570;9.718;2023-03-01T17:45:46;4.30;76.50
11132;DHT22;5620;53.570;9.718;2023-03-01T17:48:16;4.20;76.40
11132;DHT22;5620;53.570;9.718;2023-03-01T17:50:44;4.20;76.60
11132;DHT22;5620;53.570;9.718;2023-03-01T17:53:15;4.10;78.10
11132;DHT22;5620;53.570;9.718;2023-03-01T17:55:43;4.10;77.40
11132;DHT22;5620;53.570;9.718;2023-03-01T17:58:16;4.00;77.80
11132;DHT22;5620;53.570;9.718;2023-03-01T18:00:43;4.00;78.10
11132;DHT22;5620;53.570;9.718;2023-03-01T18:03:11;3.90;78.60
11132;DHT22;5620;53.570;9.718;2023-03-01T18:05:38;3.90;79.10
11132;DHT22;5620;53.570;9.718;2023-03-01T18:08:08;3.90;79.70
11132;DHT22;5620;53.570;9.718;2023-03-01T18:10:37;3.80;79.60
11132;DHT22;5620;53.570;9.718;2023-03-01T18:13:06;3.80;80.30
11132;DHT22;5620;53.570;9.718;2023-03-01T18:15:34;3.80;80.90
11132;DHT22;5620;53.570;9.718;2023-03-01T18:18:01;3.70;81.10
11132;DHT22;5620;53.570;9.718;2023-03-01T18:20:29;3.70;81.60